sensor_id;sensor_type;location;lat;lon;timestamp;temperature;humidity
15083;DHT22;7640;53.116;6.878;2023-04-25T00:01:36;7.50;99.90
15083;DHT22;7640;53.116;6.878;2023-04-25T00:04:06;7.50;99.90
15083;DHT22;7640;53.116;6.878;2023-04-25T00:06:37;7.50;99.90
15083;DHT22;7640;53.116;6.878;2023-04-25T00:09:09;7.50;99.90
15083;DHT22;7640;53.116;6.878;2023-04-25T00:11:40;7.40;99.90
15083;DHT22;7640;53.116;6.878;2023-04-25T00:14:10;7.40;99.90
15083;DHT22;7640;53.116;6.878;2023-04-25T00:16:43;7.40;99.90
15083;DHT22;7640;53.116;6.878;2023-04-25T00:19:15;7.40;99.90
15083;DHT22;7640;53.116;6.878;2023-04-25T00:21:44;7.40;99.90
15083;DHT22;7640;53.116;6.878;2023-04-25T00:24:15;7.40;99.90
15083;DHT22;7640;53.116;6.878;2023-04-25T00:26:47;7.40;99.90
15083;DHT22;7640;53.116;6.878;2023-04-25T00:29:18;7.40;99.90
15083;DHT22;7640;53.116;6.878;2023-04-25T00:31:50;7.40;99.90
15083;DHT22;7640;53.116;6.878;2023-04-25T00:34:20;7.30;99.90
15083;DHT22;7640;53.116;6.878;2023-04-25T00:36:49;7.30;99.90
15083;DHT22;7640;53.116;6.878;2023-04-25T00:39:24;7.30;99.90
15083;DHT22;7640;53.116;6.878;2023-04-25T00:41:58;7.40;99.90
15083;DHT22;7640;53.116;6.878;2023-04-25T00:44:30;7.40;99.90
15083;DHT22;7640;53.116;6.878;2023-04-25T00:47:05;7.40;99.90
15083;DHT22;7640;53.116;6.878;2023-04-25T00:49:34;7.40;99.90
15083;DHT22;7640;53.116;6.878;2023-04-25T00:52:04;7.40;99.90
15083;DHT22;7640;53.116;6.878;2023-04-25T00:54:35;7.30;99.90
15083;DHT22;7640;53.116;6.878;2023-04-25T00:57:06;7.30;99.90
15083;DHT22;7640;53.116;6.878;2023-04-25T00:59:39;7.30;99.90
15083;DHT22;7640;53.116;6.878;2023-04-25T01:02:13;7.20;99.90
15083;DHT22;7640;53.116;6.878;2023-04-25T01:04:42;7.20;99.90
15083;DHT22;7640;53.116;6.878;2023-04-25T01:07:12;7.10;99.90
15083;DHT22;7640;53.116;6.878;2023-04-25T01:09:52;7.00;99.90
15083;DHT22;7640;53.116;6.878;2023-04-25T01:12:24;7.00;99.90
15083;DHT22;7640;53.116;6.878;2023-04-25T01:14:54;6.80;99.90
15083;DHT22;7640;53.116;6.878;2023-04-25T01:17:24;6.80;99.90
15083;DHT22;7640;53.116;6.878;2023-04-25T01:19:58;6.70;99.90
15083;DHT22;7640;53.116;6.878;2023-04-25T01:22:30;6.70;99.90
15083;DHT22;7640;53.116;6.878;2023-04-25T01:25:02;6.70;99.90
15083;DHT22;7640;53.116;6.878;2023-04-25T01:27:33;6.70;99.90
15083;DHT22;7640;53.116;6.878;2023-04-25T01:30:04;6.70;99.90
15083;DHT22;7640;53.116;6.878;2023-04-25T01:32:35;6.70;99.90
15083;DHT22;7640;53.116;6.878;2023-04-25T01:35:09;6.70;99.90
15083;DHT22;7640;53.116;6.878;2023-04-25T01:37:43;6.70;99.90
15083;DHT22;7640;53.116;6.878;2023-04-25T01:40:19;6.70;99.90
15083;DHT22;7640;53.116;6.878;2023-04-25T01:42:50;6.70;99.90
15083;DHT22;7640;53.116;6.878;2023-04-25T01:45:28;6.80;99.90
15083;DHT22;7640;53.116;6.878;2023-04-25T01:48:00;6.80;99.90
15083;DHT22;7640;53.116;6.878;2023-04-25T01:50:41;6.80;99.90
15083;DHT22;7640;53.116;6.878;2023-04-25T01:53:16;6.80;99.90
15083;DHT22;7640;53.116;6.878;2023-04-25T01:55:45;6.80;99.90
15083;DHT22;7640;53.116;6.878;2023-04-25T01:58:15;6.80;99.90
15083;DHT22;7640;53.116;6.878;2023-04-25T02:00:46;6.90;99.90
15083;DHT22;7640;53.116;6.878;2023-04-25T02:03:18;6.90;99.90
15083;DHT22;7640;53.116;6.878;2023-04-25T02:05:51;6.90;99.90
15083;DHT22;7640;53.116;6.878;2023-04-25T02:08:28;6.90;99.90
15083;DHT22;7640;53.116;6.878;2023-04-25T02:11:02;6.90;99.90
15083;DHT22;7640;53.116;6.878;2023-04-25T02:13:37;6.90;99.90
15083;DHT22;7640;53.116;6.878;2023-04-25T02:16:07;6.90;99.90
15083;DHT22;7640;53.116;6.878;2023-04-25T02:18:37;6.90;99.90
15083;DHT22;7640;53.116;6.878;2023-04-25T02:21:08;6.90;99.90
15083;DHT22;7640;53.116;6.878;2023-04-25T02:23:39;7.00;99.90
15083;DHT22;7640;53.116;6.878;2023-04-25T02:26:09;7.00;99.90
15083;DHT22;7640;53.116;6.878;2023-04-25T02:28:40;7.00;99.90
15083;DHT22;7640;53.116;6.878;2023-04-25T02:31:15;7.00;99.90
15083;DHT22;7640;53.116;6.878;2023-04-25T02:33:47;7.00;99.90
15083;DHT22;7640;53.116;6.878;2023-04-25T02:36:18;7.00;99.90
15083;DHT22;7640;53.116;6.878;2023-04-25T02:38:53;7.00;99.90
15083;DHT22;7640;53.116;6.878;2023-04-25T02:41:34;6.90;99.90
15083;DHT22;7640;53.116;6.878;2023-04-25T02:44:08;6.80;99.90
15083;DHT22;7640;53.116;6.878;2023-04-25T02:46:39;6.80;99.90
15083;DHT22;7640;53.116;6.878;2023-04-25T02:49:09;6.80;99.90
15083;DHT22;7640;53.116;6.878;2023-04-25T02:51:39;6.70;99.90
15083;DHT22;7640;53.116;6.878;2023-04-25T02:54:17;6.70;99.90
15083;DHT22;7640;53.116;6.878;2023-04-25T02:56:52;6.70;99.90
15083;DHT22;7640;53.116;6.878;2023-04-25T02:59:27;6.70;99.90
15083;DHT22;7640;53.116;6.878;2023-04-25T03:01:58;6.70;99.90
15083;DHT22;7640;53.116;6.878;2023-04-25T03:04:28;6.70;99.90
15083;DHT22;7640;53.116;6.878;2023-04-25T03:07:00;6.70;99.90
15083;DHT22;7640;53.116;6.878;2023-04-25T03:09:43;6.70;99.90
15083;DHT22;7640;53.116;6.878;2023-04-25T03:12:12;6.70;99.90
15083;DHT22;7640;53.116;6.878;2023-04-25T03:14:42;6.70;99.90
15083;DHT22;7640;53.116;6.878;2023-04-25T03:17:11;6.70;99.90
15083;DHT22;7640;53.116;6.878;2023-04-25T03:19:44;6.70;99.90
15083;DHT22;7640;53.116;6.878;2023-04-25T03:22:13;6.60;99.90
15083;DHT22;7640;53.116;6.878;2023-04-25T03:24:45;6.60;99.90
15083;DHT22;7640;53.116;6.878;2023-04-25T03:27:15;6.60;99.90
15083;DHT22;7640;53.116;6.878;2023-04-25T03:29:47;6.60;99.90
15083;DHT22;7640;53.116;6.878;2023-04-25T03:32:17;6.60;99.90
15083;DHT22;7640;53.116;6.878;2023-04-25T03:34:49;6.60;99.90
15083;DHT22;7640;53.116;6.878;2023-04-25T03:37:22;6.60;99.90
15083;DHT22;7640;53.116;6.878;2023-04-25T03:39:59;6.50;99.90
15083;DHT22;7640;53.116;6.878;2023-04-25T03:42:28;6.50;99.90
15083;DHT22;7640;53.116;6.878;2023-04-25T03:44:58;6.50;99.90
15083;DHT22;7640;53.116;6.878;2023-04-25T03:47:28;6.40;99.90
15083;DHT22;7640;53.116;6.878;2023-04-25T03:49:57;6.40;99.90
15083;DHT22;7640;53.116;6.878;2023-04-25T03:52:29;6.30;99.90
15083;DHT22;7640;53.116;6.878;2023-04-25T03:55:00;6.30;99.90
15083;DHT22;7640;53.116;6.878;2023-04-25T03:57:32;6.20;99.90
15083;DHT22;7640;53.116;6.878;2023-04-25T04:00:02;6.10;99.90
15083;DHT22;7640;53.116;6.878;2023-04-25T04:02:36;6.10;99.90
15083;DHT22;7640;53.116;6.878;2023-04-25T04:05:08;6.00;99.90
15083;DHT22;7640;53.116;6.878;2023-04-25T04:07:39;6.00;99.90
15083;DHT22;7640;53.116;6.878;2023-04-25T04:10:11;5.90;99.90
15083;DHT22;7640;53.116;6.878;2023-04-25T04:12:42;5.90;99.90
15083;DHT22;7640;53.116;6.878;2023-04-25T04:15:12;5.80;99.90
15083;DHT22;7640;53.116;6.878;2023-04-25T04:17:45;5.80;99.90
15083;DHT22;7640;53.116;6.878;2023-04-25T04:20:16;5.80;99.90
15083;DHT22;7640;53.116;6.878;2023-04-25T04:22:54;5.80;99.90
15083;DHT22;7640;53.116;6.878;2023-04-25T04:25:28;5.80;99.90
15083;DHT22;7640;53.116;6.878;2023-04-25T04:27:59;5.80;99.90
15083;DHT22;7640;53.116;6.878;2023-04-25T04:30:29;5.80;99.90
15083;DHT22;7640;53.116;6.878;2023-04-25T04:32:59;5.80;99.90
15083;DHT22;7640;53.116;6.878;2023-04-25T04:35:31;5.80;99.90
15083;DHT22;7640;53.116;6.878;2023-04-25T04:38:00;5.70;99.90
15083;DHT22;7640;53.116;6.878;2023-04-25T04:40:32;5.70;99.90
15083;DHT22;7640;53.116;6.878;2023-04-25T04:43:02;5.60;99.90
15083;DHT22;7640;53.116;6.878;2023-04-25T04:45:35;5.60;99.90
15083;DHT22;7640;53.116;6.878;2023-04-25T04:48:07;5.60;99.90
15083;DHT22;7640;53.116;6.878;2023-04-25T04:50:39;5.60;99.90
15083;DHT22;7640;53.116;6.878;2023-04-25T04:53:08;5.50;99.90
15083;DHT22;7640;53.116;6.878;2023-04-25T04:55:39;5.50;99.90
15083;DHT22;7640;53.116;6.878;2023-04-25T04:58:10;5.50;99.90
15083;DHT22;7640;53.116;6.878;2023-04-25T05:00:39;5.50;99.90
15083;DHT22;7640;53.116;6.878;2023-04-25T05:03:08;5.50;99.90
15083;DHT22;7640;53.116;6.878;2023-04-25T05:05:39;5.50;99.90
15083;DHT22;7640;53.116;6.878;2023-04-25T05:08:08;5.50;99.90
15083;DHT22;7640;53.116;6.878;2023-04-25T05:10:47;5.50;99.90
15083;DHT22;7640;53.116;6.878;2023-04-25T05:13:17;5.50;99.90
15083;DHT22;7640;53.116;6.878;2023-04-25T05:15:53;5.60;99.90
15083;DHT22;7640;53.116;6.878;2023-04-25T05:18:23;5.60;99.90
15083;DHT22;7640;53.116;6.878;2023-04-25T05:20:54;5.70;99.90
15083;DHT22;7640;53.116;6.878;2023-04-25T05:23:23;5.80;99.90
15083;DHT22;7640;53.116;6.878;2023-04-25T05:26:01;5.90;99.90
15083;DHT22;7640;53.116;6.878;2023-04-25T05:28:31;6.00;99.90
15083;DHT22;7640;53.116;6.878;2023-04-25T05:31:01;6.10;99.90
15083;DHT22;7640;53.116;6.878;2023-04-25T05:33:34;6.20;99.90
15083;DHT22;7640;53.116;6.878;2023-04-25T05:36:05;6.30;99.90
15083;DHT22;7640;53.116;6.878;2023-04-25T05:38:35;6.30;99.90
15083;DHT22;7640;53.116;6.878;2023-04-25T05:41:06;6.40;99.90
15083;DHT22;7640;53.116;6.878;2023-04-25T05:43:37;6.40;99.90
15083;DHT22;7640;53.116;6.878;2023-04-25T05:46:07;6.30;99.90
15083;DHT22;7640;53.116;6.878;2023-04-25T05:48:37;6.30;99.90
15083;DHT22;7640;53.116;6.878;2023-04-25T05:51:12;6.30;99.90
15083;DHT22;7640;53.116;6.878;2023-04-25T05:53:42;6.30;99.90
15083;DHT22;7640;53.116;6.878;2023-04-25T05:56:13;6.30;99.90
15083;DHT22;7640;53.116;6.878;2023-04-25T05:58:43;6.40;99.90
15083;DHT22;7640;53.116;6.878;2023-04-25T06:01:13;6.30;99.90
15083;DHT22;7640;53.116;6.878;2023-04-25T06:03:43;6.40;99.90
15083;DHT22;7640;53.116;6.878;2023-04-25T06:06:14;6.40;99.90
15083;DHT22;7640;53.116;6.878;2023-04-25T06:08:43;6.50;99.90
15083;DHT22;7640;53.116;6.878;2023-04-25T06:11:14;6.50;99.90
15083;DHT22;7640;53.116;6.878;2023-04-25T06:13:45;6.70;99.90
15083;DHT22;7640;53.116;6.878;2023-04-25T06:16:16;6.80;99.90
15083;DHT22;7640;53.116;6.878;2023-04-25T06:18:46;6.90;99.90
15083;DHT22;7640;53.116;6.878;2023-04-25T06:21:17;6.80;99.90
15083;DHT22;7640;53.116;6.878;2023-04-25T06:23:46;6.70;99.90
15083;DHT22;7640;53.116;6.878;2023-04-25T06:26:18;6.60;99.90
15083;DHT22;7640;53.116;6.878;2023-04-25T06:28:48;6.60;99.90
15083;DHT22;7640;53.116;6.878;2023-04-25T06:31:18;6.50;99.90
15083;DHT22;7640;53.116;6.878;2023-04-25T06:33:49;6.50;99.90
15083;DHT22;7640;53.116;6.878;2023-04-25T06:36:23;6.50;99.90
15083;DHT22;7640;53.116;6.878;2023-04-25T06:38:54;6.50;99.90
15083;DHT22;7640;53.116;6.878;2023-04-25T06:41:26;6.60;99.90
15083;DHT22;7640;53.116;6.878;2023-04-25T06:43:56;6.60;99.90
15083;DHT22;7640;53.116;6.878;2023-04-25T06:46:26;6.70;99.90
15083;DHT22;7640;53.116;6.878;2023-04-25T06:48:56;6.80;99.90
15083;DHT22;7640;53.116;6.878;2023-04-25T06:51:28;6.80;99.90
15083;DHT22;7640;53.116;6.878;2023-04-25T06:53:57;7.00;99.90
15083;DHT22;7640;53.116;6.878;2023-04-25T06:56:31;7.10;99.90
15083;DHT22;7640;53.116;6.878;2023-04-25T06:59:00;7.20;99.90
15083;DHT22;7640;53.116;6.878;2023-04-25T07:01:29;7.20;99.90
15083;DHT22;7640;53.116;6.878;2023-04-25T07:04:00;7.30;99.90
15083;DHT22;7640;53.116;6.878;2023-04-25T07:06:31;7.50;99.90
15083;DHT22;7640;53.116;6.878;2023-04-25T07:09:00;7.60;99.90
15083;DHT22;7640;53.116;6.878;2023-04-25T07:11:31;7.70;99.90
15083;DHT22;7640;53.116;6.878;2023-04-25T07:14:01;7.90;99.90
15083;DHT22;7640;53.116;6.878;2023-04-25T07:16:32;8.10;99.90
15083;DHT22;7640;53.116;6.878;2023-04-25T07:19:02;8.30;99.90
15083;DHT22;7640;53.116;6.878;2023-04-25T07:21:32;8.40;99.90
15083;DHT22;7640;53.116;6.878;2023-04-25T07:24:05;8.40;99.90
15083;DHT22;7640;53.116;6.878;2023-04-25T07:26:36;8.40;99.90
15083;DHT22;7640;53.116;6.878;2023-04-25T07:29:05;8.30;99.90
15083;DHT22;7640;53.116;6.878;2023-04-25T07:31:34;8.10;99.90
15083;DHT22;7640;53.116;6.878;2023-04-25T07:34:04;8.00;99.90
15083;DHT22;7640;53.116;6.878;2023-04-25T07:36:33;8.00;99.90
15083;DHT22;7640;53.116;6.878;2023-04-25T07:39:03;8.00;99.90
15083;DHT22;7640;53.116;6.878;2023-04-25T07:41:33;8.10;99.90
15083;DHT22;7640;53.116;6.878;2023-04-25T07:44:04;8.10;99.90
15083;DHT22;7640;53.116;6.878;2023-04-25T07:46:34;8.20;99.90
15083;DHT22;7640;53.116;6.878;2023-04-25T07:49:10;8.40;99.90
15083;DHT22;7640;53.116;6.878;2023-04-25T07:51:42;8.50;99.90
15083;DHT22;7640;53.116;6.878;2023-04-25T07:54:14;8.60;99.90
15083;DHT22;7640;53.116;6.878;2023-04-25T07:56:49;8.80;99.90
15083;DHT22;7640;53.116;6.878;2023-04-25T07:59:25;8.90;99.90
15083;DHT22;7640;53.116;6.878;2023-04-25T08:01:56;9.10;99.90
15083;DHT22;7640;53.116;6.878;2023-04-25T08:04:28;9.30;99.90
15083;DHT22;7640;53.116;6.878;2023-04-25T08:06:57;9.30;99.90
15083;DHT22;7640;53.116;6.878;2023-04-25T08:09:26;9.30;99.90
15083;DHT22;7640;53.116;6.878;2023-04-25T08:11:56;9.30;99.90
15083;DHT22;7640;53.116;6.878;2023-04-25T08:14:30;9.30;99.90
15083;DHT22;7640;53.116;6.878;2023-04-25T08:17:03;9.30;99.90
15083;DHT22;7640;53.116;6.878;2023-04-25T08:19:39;9.30;99.90
15083;DHT22;7640;53.116;6.878;2023-04-25T08:22:08;9.20;99.90
15083;DHT22;7640;53.116;6.878;2023-04-25T08:24:40;9.20;99.90
15083;DHT22;7640;53.116;6.878;2023-04-25T08:27:11;9.20;99.90
15083;DHT22;7640;53.116;6.878;2023-04-25T08:29:42;9.10;99.90
15083;DHT22;7640;53.116;6.878;2023-04-25T08:32:12;9.10;99.90
15083;DHT22;7640;53.116;6.878;2023-04-25T08:34:45;9.10;99.90
15083;DHT22;7640;53.116;6.878;2023-04-25T08:37:30;9.20;99.90
15083;DHT22;7640;53.116;6.878;2023-04-25T08:40:05;9.40;99.90
15083;DHT22;7640;53.116;6.878;2023-04-25T08:42:37;9.50;99.90
15083;DHT22;7640;53.116;6.878;2023-04-25T08:45:10;9.30;99.90
15083;DHT22;7640;53.116;6.878;2023-04-25T08:47:40;8.90;99.90
15083;DHT22;7640;53.116;6.878;2023-04-25T08:50:11;8.40;99.90
15083;DHT22;7640;53.116;6.878;2023-04-25T08:52:44;8.00;99.90
15083;DHT22;7640;53.116;6.878;2023-04-25T08:55:13;7.80;99.90
15083;DHT22;7640;53.116;6.878;2023-04-25T08:57:44;7.70;99.90
15083;DHT22;7640;53.116;6.878;2023-04-25T09:00:19;7.70;99.90
15083;DHT22;7640;53.116;6.878;2023-04-25T09:02:49;7.80;99.90
15083;DHT22;7640;53.116;6.878;2023-04-25T09:05:20;7.90;99.90
15083;DHT22;7640;53.116;6.878;2023-04-25T09:07:52;8.10;99.90
15083;DHT22;7640;53.116;6.878;2023-04-25T09:10:21;8.20;99.90
15083;DHT22;7640;53.116;6.878;2023-04-25T09:13:03;8.30;99.90
15083;DHT22;7640;53.116;6.878;2023-04-25T09:15:47;8.40;99.90
15083;DHT22;7640;53.116;6.878;2023-04-25T09:18:23;8.40;99.90
15083;DHT22;7640;53.116;6.878;2023-04-25T09:21:05;8.40;99.90
15083;DHT22;7640;53.116;6.878;2023-04-25T09:23:43;8.40;99.90
15083;DHT22;7640;53.116;6.878;2023-04-25T09:26:15;8.60;99.90
15083;DHT22;7640;53.116;6.878;2023-04-25T09:28:48;8.70;99.90
15083;DHT22;7640;53.116;6.878;2023-04-25T09:31:25;8.90;99.90
15083;DHT22;7640;53.116;6.878;2023-04-25T09:33:59;9.10;99.90
15083;DHT22;7640;53.116;6.878;2023-04-25T09:36:30;9.20;99.90
15083;DHT22;7640;53.116;6.878;2023-04-25T09:39:00;9.30;99.90
15083;DHT22;7640;53.116;6.878;2023-04-25T09:41:31;9.50;99.90
15083;DHT22;7640;53.116;6.878;2023-04-25T09:44:01;9.80;99.90
15083;DHT22;7640;53.116;6.878;2023-04-25T09:46:35;10.00;99.90
15083;DHT22;7640;53.116;6.878;2023-04-25T09:49:07;10.20;99.90
15083;DHT22;7640;53.116;6.878;2023-04-25T09:51:36;10.30;99.90
15083;DHT22;7640;53.116;6.878;2023-04-25T09:54:09;10.30;99.90
15083;DHT22;7640;53.116;6.878;2023-04-25T09:56:40;10.40;99.90
15083;DHT22;7640;53.116;6.878;2023-04-25T09:59:20;10.60;99.90
15083;DHT22;7640;53.116;6.878;2023-04-25T10:01:52;10.60;99.90
15083;DHT22;7640;53.116;6.878;2023-04-25T10:04:28;10.40;99.90
15083;DHT22;7640;53.116;6.878;2023-04-25T10:07:00;10.10;99.90
15083;DHT22;7640;53.116;6.878;2023-04-25T10:09:33;9.90;99.90
15083;DHT22;7640;53.116;6.878;2023-04-25T10:12:08;9.80;99.90
15083;DHT22;7640;53.116;6.878;2023-04-25T10:14:41;9.80;99.90
15083;DHT22;7640;53.116;6.878;2023-04-25T10:17:13;9.90;99.90
15083;DHT22;7640;53.116;6.878;2023-04-25T10:19:52;10.00;99.90
15083;DHT22;7640;53.116;6.878;2023-04-25T10:22:28;10.20;99.90
15083;DHT22;7640;53.116;6.878;2023-04-25T10:25:07;10.40;99.90
15083;DHT22;7640;53.116;6.878;2023-04-25T10:27:44;10.60;99.90
15083;DHT22;7640;53.116;6.878;2023-04-25T10:30:15;10.90;99.90
15083;DHT22;7640;53.116;6.878;2023-04-25T10:32:47;11.10;99.90
15083;DHT22;7640;53.116;6.878;2023-04-25T10:35:19;11.30;99.90
15083;DHT22;7640;53.116;6.878;2023-04-25T10:37:59;11.50;99.90
15083;DHT22;7640;53.116;6.878;2023-04-25T10:40:31;11.40;99.90
15083;DHT22;7640;53.116;6.878;2023-04-25T10:43:38;11.00;99.90
15083;DHT22;7640;53.116;6.878;2023-04-25T10:46:16;10.50;99.90
15083;DHT22;7640;53.116;6.878;2023-04-25T10:48:49;10.40;99.90
15083;DHT22;7640;53.116;6.878;2023-04-25T10:51:22;10.30;99.90
15083;DHT22;7640;53.116;6.878;2023-04-25T10:53:59;10.20;99.90
15083;DHT22;7640;53.116;6.878;2023-04-25T10:56:32;10.20;99.90
15083;DHT22;7640;53.116;6.878;2023-04-25T10:59:13;10.20;99.90
15083;DHT22;7640;53.116;6.878;2023-04-25T11:01:46;10.20;99.90
15083;DHT22;7640;53.116;6.878;2023-04-25T11:04:29;10.50;99.90
15083;DHT22;7640;53.116;6.878;2023-04-25T11:07:13;10.70;99.90
15083;DHT22;7640;53.116;6.878;2023-04-25T11:09:50;10.90;99.90
15083;DHT22;7640;53.116;6.878;2023-04-25T11:12:26;11.20;99.90
15083;DHT22;7640;53.116;6.878;2023-04-25T11:15:01;11.40;99.90
15083;DHT22;7640;53.116;6.878;2023-04-25T11:17:36;11.70;99.90
15083;DHT22;7640;53.116;6.878;2023-04-25T11:20:38;11.90;99.90
15083;DHT22;7640;53.116;6.878;2023-04-25T11:23:23;11.70;99.90
15083;DHT22;7640;53.116;6.878;2023-04-25T11:26:08;11.50;99.90
15083;DHT22;7640;53.116;6.878;2023-04-25T11:28:46;11.10;99.90
15083;DHT22;7640;53.116;6.878;2023-04-25T11:31:39;10.80;99.90
15083;DHT22;7640;53.116;6.878;2023-04-25T11:34:34;10.60;99.90
15083;DHT22;7640;53.116;6.878;2023-04-25T11:37:32;10.60;99.90
15083;DHT22;7640;53.116;6.878;2023-04-25T11:40:12;10.70;99.90
15083;DHT22;7640;53.116;6.878;2023-04-25T11:42:47;10.90;99.90
15083;DHT22;7640;53.116;6.878;2023-04-25T11:45:28;11.10;99.90
15083;DHT22;7640;53.116;6.878;2023-04-25T11:48:29;11.60;99.90
15083;DHT22;7640;53.116;6.878;2023-04-25T11:51:17;12.10;99.90
15083;DHT22;7640;53.116;6.878;2023-04-25T11:54:18;12.30;99.90
15083;DHT22;7640;53.116;6.878;2023-04-25T11:57:02;12.30;99.90
15083;DHT22;7640;53.116;6.878;2023-04-25T11:59:39;12.10;99.90
15083;DHT22;7640;53.116;6.878;2023-04-25T12:02:24;12.00;99.90
15083;DHT22;7640;53.116;6.878;2023-04-25T12:05:05;12.10;99.90
15083;DHT22;7640;53.116;6.878;2023-04-25T12:07:56;12.30;99.90
15083;DHT22;7640;53.116;6.878;2023-04-25T12:10:29;12.40;99.90
15083;DHT22;7640;53.116;6.878;2023-04-25T12:12:58;12.30;99.90
15083;DHT22;7640;53.116;6.878;2023-04-25T12:15:33;12.30;99.90
15083;DHT22;7640;53.116;6.878;2023-04-25T12:18:06;12.40;99.90
15083;DHT22;7640;53.116;6.878;2023-04-25T12:20:35;12.50;99.90
15083;DHT22;7640;53.116;6.878;2023-04-25T12:23:07;12.60;99.90
15083;DHT22;7640;53.116;6.878;2023-04-25T12:25:46;12.50;99.90
15083;DHT22;7640;53.116;6.878;2023-04-25T12:28:18;12.50;99.90
15083;DHT22;7640;53.116;6.878;2023-04-25T12:31:01;12.70;99.90
15083;DHT22;7640;53.116;6.878;2023-04-25T12:33:33;12.80;99.90
15083;DHT22;7640;53.116;6.878;2023-04-25T12:36:04;13.00;99.90
15083;DHT22;7640;53.116;6.878;2023-04-25T12:38:37;13.20;99.90
15083;DHT22;7640;53.116;6.878;2023-04-25T12:41:09;13.30;99.90
15083;DHT22;7640;53.116;6.878;2023-04-25T12:43:47;13.50;99.90
15083;DHT22;7640;53.116;6.878;2023-04-25T12:46:21;13.60;99.90
15083;DHT22;7640;53.116;6.878;2023-04-25T12:48:52;13.50;99.90
15083;DHT22;7640;53.116;6.878;2023-04-25T12:51:38;13.10;99.90
15083;DHT22;7640;53.116;6.878;2023-04-25T12:54:09;12.80;99.90
15083;DHT22;7640;53.116;6.878;2023-04-25T12:56:41;12.50;99.90
15083;DHT22;7640;53.116;6.878;2023-04-25T12:59:11;12.60;99.90
15083;DHT22;7640;53.116;6.878;2023-04-25T13:01:41;13.10;99.90
15083;DHT22;7640;53.116;6.878;2023-04-25T13:04:12;13.40;99.90
15083;DHT22;7640;53.116;6.878;2023-04-25T13:06:44;13.20;99.90
15083;DHT22;7640;53.116;6.878;2023-04-25T13:09:13;13.00;99.90
15083;DHT22;7640;53.116;6.878;2023-04-25T13:11:45;13.00;99.90
15083;DHT22;7640;53.116;6.878;2023-04-25T13:14:15;13.30;99.90
15083;DHT22;7640;53.116;6.878;2023-04-25T13:16:48;13.80;99.90
15083;DHT22;7640;53.116;6.878;2023-04-25T13:19:27;13.80;99.90
15083;DHT22;7640;53.116;6.878;2023-04-25T13:21:58;13.70;99.90
15083;DHT22;7640;53.116;6.878;2023-04-25T13:24:28;13.50;99.90
15083;DHT22;7640;53.116;6.878;2023-04-25T13:27:01;13.10;99.90
15083;DHT22;7640;53.116;6.878;2023-04-25T13:29:32;13.00;99.90
15083;DHT22;7640;53.116;6.878;2023-04-25T13:32:04;13.20;99.90
15083;DHT22;7640;53.116;6.878;2023-04-25T13:34:34;13.60;99.90
15083;DHT22;7640;53.116;6.878;2023-04-25T13:37:07;13.90;99.90
15083;DHT22;7640;53.116;6.878;2023-04-25T13:39:39;13.80;99.90
15083;DHT22;7640;53.116;6.878;2023-04-25T13:42:14;13.40;99.90
15083;DHT22;7640;53.116;6.878;2023-04-25T13:44:45;13.30;99.90
15083;DHT22;7640;53.116;6.878;2023-04-25T13:47:14;13.80;99.90
15083;DHT22;7640;53.116;6.878;2023-04-25T13:49:44;14.50;99.90
15083;DHT22;7640;53.116;6.878;2023-04-25T13:52:14;14.90;99.90
15083;DHT22;7640;53.116;6.878;2023-04-25T13:54:45;15.00;99.90
15083;DHT22;7640;53.116;6.878;2023-04-25T13:57:17;14.80;99.90
15083;DHT22;7640;53.116;6.878;2023-04-25T13:59:47;14.80;99.90
15083;DHT22;7640;53.116;6.878;2023-04-25T14:02:16;14.40;99.90
15083;DHT22;7640;53.116;6.878;2023-04-25T14:04:47;13.90;99.90
15083;DHT22;7640;53.116;6.878;2023-04-25T14:07:27;13.40;99.90
15083;DHT22;7640;53.116;6.878;2023-04-25T14:09:58;13.00;99.90
15083;DHT22;7640;53.116;6.878;2023-04-25T14:12:30;13.00;99.90
15083;DHT22;7640;53.116;6.878;2023-04-25T14:15:01;13.40;99.90
15083;DHT22;7640;53.116;6.878;2023-04-25T14:17:32;14.10;99.90
15083;DHT22;7640;53.116;6.878;2023-04-25T14:20:02;14.70;99.90
15083;DHT22;7640;53.116;6.878;2023-04-25T14:22:33;15.20;99.90
15083;DHT22;7640;53.116;6.878;2023-04-25T14:25:04;15.10;99.90
15083;DHT22;7640;53.116;6.878;2023-04-25T14:27:39;14.50;99.90
15083;DHT22;7640;53.116;6.878;2023-04-25T14:30:09;14.00;99.90
15083;DHT22;7640;53.116;6.878;2023-04-25T14:32:40;14.00;99.90
15083;DHT22;7640;53.116;6.878;2023-04-25T14:35:10;14.50;99.90
15083;DHT22;7640;53.116;6.878;2023-04-25T14:37:40;15.00;99.90
15083;DHT22;7640;53.116;6.878;2023-04-25T14:40:10;15.30;99.90
15083;DHT22;7640;53.116;6.878;2023-04-25T14:42:44;15.10;99.90
15083;DHT22;7640;53.116;6.878;2023-04-25T14:45:15;14.60;99.90
15083;DHT22;7640;53.116;6.878;2023-04-25T14:47:48;14.10;99.90
15083;DHT22;7640;53.116;6.878;2023-04-25T14:50:17;13.80;99.90
15083;DHT22;7640;53.116;6.878;2023-04-25T14:52:50;13.40;99.90
15083;DHT22;7640;53.116;6.878;2023-04-25T14:55:23;13.10;99.90
15083;DHT22;7640;53.116;6.878;2023-04-25T14:57:55;13.20;99.90
15083;DHT22;7640;53.116;6.878;2023-04-25T15:00:26;13.70;99.90
15083;DHT22;7640;53.116;6.878;2023-04-25T15:02:56;14.40;99.90
15083;DHT22;7640;53.116;6.878;2023-04-25T15:05:27;14.40;99.90
15083;DHT22;7640;53.116;6.878;2023-04-25T15:07:57;14.10;99.90
15083;DHT22;7640;53.116;6.878;2023-04-25T15:10:27;14.00;99.90
15083;DHT22;7640;53.116;6.878;2023-04-25T15:13:00;14.40;99.90
15083;DHT22;7640;53.116;6.878;2023-04-25T15:15:32;14.90;99.90
15083;DHT22;7640;53.116;6.878;2023-04-25T15:18:03;15.10;99.90
15083;DHT22;7640;53.116;6.878;2023-04-25T15:20:34;14.70;99.90
15083;DHT22;7640;53.116;6.878;2023-04-25T15:23:07;14.10;99.90
15083;DHT22;7640;53.116;6.878;2023-04-25T15:25:38;13.70;99.90
15083;DHT22;7640;53.116;6.878;2023-04-25T15:28:11;14.00;99.90
15083;DHT22;7640;53.116;6.878;2023-04-25T15:30:42;14.60;99.90
15083;DHT22;7640;53.116;6.878;2023-04-25T15:33:12;15.20;99.90
15083;DHT22;7640;53.116;6.878;2023-04-25T15:35:42;15.90;99.90
15083;DHT22;7640;53.116;6.878;2023-04-25T15:38:12;16.50;99.90
15083;DHT22;7640;53.116;6.878;2023-04-25T15:40:42;17.00;99.90
15083;DHT22;7640;53.116;6.878;2023-04-25T15:43:13;17.40;99.90
15083;DHT22;7640;53.116;6.878;2023-04-25T15:45:43;17.30;99.90
15083;DHT22;7640;53.116;6.878;2023-04-25T15:48:13;16.80;99.90
15083;DHT22;7640;53.116;6.878;2023-04-25T15:50:44;16.60;99.90
15083;DHT22;7640;53.116;6.878;2023-04-25T15:53:15;16.00;99.90
15083;DHT22;7640;53.116;6.878;2023-04-25T15:55:48;15.60;99.90
15083;DHT22;7640;53.116;6.878;2023-04-25T15:58:20;16.00;99.90
15083;DHT22;7640;53.116;6.878;2023-04-25T16:00:50;16.50;99.90
15083;DHT22;7640;53.116;6.878;2023-04-25T16:03:24;17.10;99.90
15083;DHT22;7640;53.116;6.878;2023-04-25T16:05:56;17.60;99.90
15083;DHT22;7640;53.116;6.878;2023-04-25T16:08:28;18.10;99.90
15083;DHT22;7640;53.116;6.878;2023-04-25T16:11:03;18.60;99.90
15083;DHT22;7640;53.116;6.878;2023-04-25T16:13:33;19.00;99.90
15083;DHT22;7640;53.116;6.878;2023-04-25T16:16:14;19.00;99.40
15083;DHT22;7640;53.116;6.878;2023-04-25T16:18:44;18.70;99.10
15083;DHT22;7640;53.116;6.878;2023-04-25T16:21:14;18.70;99.90
15083;DHT22;7640;53.116;6.878;2023-04-25T16:23:43;19.10;99.70
15083;DHT22;7640;53.116;6.878;2023-04-25T16:26:13;19.10;98.90
15083;DHT22;7640;53.116;6.878;2023-04-25T16:28:47;19.00;98.30
15083;DHT22;7640;53.116;6.878;2023-04-25T16:31:19;18.70;98.70